KILE/ILE METAR and TAF weather

Enter ICAO airport designator
Station Type Date Time Source
KILE METAR 2020/09/22 17:56 UTC NOAA

KILE 221756Z AUTO 01011KT 10SM OVC006 21/19 A3001 RMK AO2 SLP153 6//// T02060194 10206 20189 58008 PNO $


Station Type Date Time Source
KILE Decoded METAR 2020/09/22 17:56 UTC NOAA

Killeen, Skylark Field Airport, TX, United States (KILE) 31-05N 097-41W
Sep 22, 2020 - 01:56 PM EDT / 2020.09.22 1756 UTC
Wind: from the N (010 degrees) at 13 MPH (11 KT):0
Visibility: 10 mile(s):0
Sky conditions: overcast
Temperature: 69.1 F (20.6 C)
Dew Point: 66.9 F (19.4 C)
Relative Humidity: 92%
Pressure (altimeter): 30.01 in. Hg (1016 hPa)
Pressure tendency: 0.02 inches (0.8 hPa) lower than three hours ago
ob: KILE 221756Z AUTO 01011KT 10SM OVC006 21/19 A3001 RMK AO2 SLP153 6//// T02060194 10206 20189 58008 PNO
cycle: 18

Station Type Date Time Source
KILE TAF UTC NOAA

Error!

Example: see airport list